• Join FlightAware (Why Join?)
  • Login
  • US Flag 
07:20AM EDT


 

Airport Tracker/Info


-or-


 

Live Flight TrackerFlight Track Log ✈ N1944E ✈ 18-Oct-2013 ✈ KBIL - KSDY

Flight Track Log - Related Links

Times and Time Zones

All times are in EDT time to prevent confusion due to time zone crossing. See the N1944E flight status page for this flight to view local times or setup timezone preferences in your user account.

Time Position Orientation Groundspeed Altitude Reporting Facility
EDT Latitude Longitude Course Direction KTS MPH feet Rate Location/Type
08:16AM 45.8833 -108.4425 56° Northeast 146 168 7,100  Level Salt Lake Center
08:17AM 45.9072 -108.3972 53° Northeast 145 167 8,100 900 Climbing Salt Lake Center
08:18AM 45.9317 -108.3503 53° Northeast 148 170 9,000 900 Climbing Salt Lake Center
08:19AM 45.9657 -108.2058 54° Northeast  Level Estimated
08:19AM 45.9600 -108.2953 53° Northeast 158 182 10,000  Level Salt Lake Center
08:20AM 45.9919 -108.1495 54° Northeast  Level Estimated
08:20AM 45.9836 -108.2411 58° Northeast 161 185 10,800  Level Salt Lake Center
08:21AM 46.0058 -108.1867 60° Northeast 160 184 11,700 720 Climbing Salt Lake Center
08:22AM 46.0286 -108.1331 59° Northeast 159 183 12,300 600 Climbing Salt Lake Center
08:23AM 46.0536 -108.0775 57° Northeast 166 191 13,000 780 Climbing Salt Lake Center
08:24AM 46.0781 -108.0283 54° Northeast 155 178 13,900 840 Climbing Salt Lake Center
08:25AM 46.1022 -107.9750 57° Northeast 149 171 14,700 540 Climbing Salt Lake Center
08:26AM 46.1253 -107.9244 57° Northeast 153 176 15,100 180 Climbing Salt Lake Center
08:27AM 46.1508 -107.8667 57° Northeast 170 196 15,100  Level Salt Lake Center
08:28AM 46.1781 -107.8075 56° Northeast 176 203 15,100  Level Salt Lake Center
08:29AM 46.2039 -107.7497 57° Northeast 175 201 15,100  Level Salt Lake Center
08:30AM 46.2325 -107.6844 58° Northeast 179 206 15,100  Level Salt Lake Center
08:31AM 46.2586 -107.6264 57° Northeast 174 200 15,100  Level Salt Lake Center
08:32AM 46.2842 -107.5681 58° Northeast 173 199 15,100  Level Salt Lake Center
08:33AM 46.3094 -107.5108 57° Northeast 171 197 15,100  Level Salt Lake Center
08:34AM 46.3347 -107.4542 57° Northeast 168 193 15,100  Level Salt Lake Center
08:35AM 46.3603 -107.3975 57° Northeast 169 194 15,100  Level Salt Lake Center
08:36AM 46.3867 -107.3389 57° Northeast 172 198 15,100  Level Salt Lake Center
08:37AM 46.4128 -107.2794 57° Northeast 174 200 15,100  Level Salt Lake Center
08:38AM 46.4375 -107.2211 58° Northeast 173 199 15,100  Level Salt Lake Center
08:39AM 46.4631 -107.1625 58° Northeast 173 199 15,100 -60 Level Salt Lake Center
08:40AM 46.4883 -107.1042 58° Northeast 172 198 15,000 -60 Descending Salt Lake Center
08:41AM 46.5136 -107.0464 58° Northeast 171 197 15,000  Level Salt Lake Center
08:42AM 46.5403 -106.9928 54° Northeast 169 194 15,000  Level Salt Lake Center
08:43AM 46.5667 -106.9333 57° Northeast 173 199 15,000  Level Salt Lake Center
08:44AM 46.5925 -106.8731 58° Northeast 175 201 15,000  Level Salt Lake Center
08:45AM 46.6183 -106.8139 58° Northeast 175 201 15,000  Level Salt Lake Center
08:46AM 46.6439 -106.7547 58° Northeast 173 199 15,000  Level Salt Lake Center
08:47AM 46.6692 -106.6931 59° Northeast 173 199 15,000  Level Salt Lake Center
08:48AM 46.6956 -106.6339 57° Northeast 175 201 15,000  Level Salt Lake Center
08:49AM 46.7219 -106.5742 57° Northeast 176 203 15,000  Level Salt Lake Center
08:50AM 46.7475 -106.5131 59° Northeast 176 203 15,000  Level Salt Lake Center
08:51AM 46.7731 -106.4533 58° Northeast 175 201 15,000  Level Salt Lake Center
08:52AM 46.7978 -106.3928 59° Northeast 175 201 15,000  Level Salt Lake Center
08:53AM 46.8217 -106.3308 61° Northeast 175 201 15,000  Level Salt Lake Center
08:54AM 46.8458 -106.2700 60° Northeast 175 201 15,000  Level Salt Lake Center
08:55AM 46.8728 -106.2114 56° Northeast 174 200 15,000  Level Salt Lake Center
08:56AM 46.8992 -106.1517 57° Northeast 174 200 15,000  Level Salt Lake Center
08:57AM 46.9256 -106.0911 57° Northeast 175 201 15,000  Level Salt Lake Center
08:58AM 46.9561 -106.0181 58° Northeast 176 203 15,000  Level Salt Lake Center
08:59AM 46.9811 -105.9581 59° Northeast 175 201 15,000  Level Salt Lake Center
09:00AM 47.0075 -105.8975 57° Northeast 176 203 15,000  Level Salt Lake Center
09:01AM 47.0331 -105.8358 59° Northeast 176 203 15,000  Level Salt Lake Center
09:02AM 47.0578 -105.7750 59° Northeast 176 203 15,000  Level Salt Lake Center
09:03AM 47.0836 -105.7150 58° Northeast 175 201 15,000  Level Salt Lake Center
09:04AM 47.1097 -105.6556 57° Northeast 174 200 15,000  Level Salt Lake Center
09:05AM 47.1356 -105.5950 58° Northeast 175 201 15,000  Level Salt Lake Center
09:06AM 47.1611 -105.5331 59° Northeast 176 203 15,000  Level Salt Lake Center
09:07AM 47.1853 -105.4733 59° Northeast 174 200 15,000 -180 Level Salt Lake Center
09:08AM 47.2097 -105.4139 59° Northeast 172 198 14,700 -300 Descending Salt Lake Center
09:09AM 47.2347 -105.3506 60° Northeast 174 200 14,400 -420 Descending Salt Lake Center
09:10AM 47.2614 -105.2897 57° Northeast 176 203 13,900 -480 Descending Salt Lake Center
09:11AM 47.2881 -105.2267 58° Northeast 179 206 13,500 -600 Descending Salt Lake Center
09:12AM 47.3136 -105.1603 60° Northeast 182 209 12,700 -720 Descending Salt Lake Center
09:13AM 47.3392 -105.0958 60° Northeast 183 211 12,100 -660 Descending Salt Lake Center
09:14AM 47.3656 -105.0322 58° Northeast 183 211 11,400 -840 Descending Salt Lake Center
09:15AM 47.3931 -104.9683 58° Northeast 183 211 10,400 -900 Descending Salt Lake Center
09:16AM 47.4258 -104.8886 59° Northeast 187 215 9,600 -660 Descending Salt Lake Center
09:17AM 47.4492 -104.8186 64° Northeast 189 217 9,100 -600 Descending Salt Lake Center
09:18AM 47.4739 -104.7547 60° Northeast 186 214 8,500 -840 Descending Salt Lake Center
09:19AM 47.5044 -104.6928 54° Northeast 184 212 7,500 -840 Descending Salt Lake Center
09:20AM 47.5353 -104.6269 55° Northeast 189 217 6,800 -720 Descending Salt Lake Center